Impacts TAF Board
For situational awareness. Not to be used for flight planning purposes.
IDs:

KJFK - New York/Kennedy Int, NY, US

Issued at 0829 UTC 25 May 2020
Updated at 0920 UTC 25 May 2020
Potential Impact None Slight Moderate High
Time0851Z 25/10Z 25/11Z 25/12Z 25/13Z 25/14Z 25/15Z 25/16Z 25/17Z 25/18Z 25/19Z 25/20Z 25/21Z 25/22Z>>
Type OBS PRVL
  [TEMP]  
PRVL PRVL PRVL PRVL PRVL PRVL PRVL PRVL
  [TEMP]  
PRVL
  [TEMP]  
PRVL PRVL PRVL
VIS 9 >6
  [3]  
>6 >6 >6 >6 >6 >6 >6 >6 >6 >6 >6 >6
CIG 6 8
  [8]  
8 8 8 8 20 20 20 --
  [30]  
--
  [30]  
-- -- --
Cover OVC OVC
  [OVC]  
OVC OVC OVC OVC BKN BKN BKN SCT
  [BKN]  
SCT
  [BKN]  
SCT SCT SCT
FltCat IFR IFR
  [IFR]  
IFR IFR IFR IFR MVFR MVFR MVFR VFR
  [MVFR]  
VFR
  [MVFR]  
VFR VFR VFR
WX -- --
  [-DZ BR]  
-- -- -- -- -- -- -- --
  [--]  
--
  [--]  
-- -- --
WDir 50 50
[50]
50 50 50 50 80 80 80 150
[150]
150
[150]
150 150 150
WSpd 4 6
  [6]  
6 6 6 6 7 7 7 10
  [10]  
10
  [10]  
10 10 10
WGst -- --
  [--]  
-- -- -- -- -- -- -- --
  [--]  
--
  [--]  
-- -- --
Raw TAF
KJFK 250829Z 2508/2612 05006KT P6SM BKN008 OVC012
  TEMPO 2509/2511 3SM -DZ BR
  FM251500 08007KT P6SM BKN020
  FM251800 15010KT P6SM SCT030
  TEMPO 2518/2520 BKN030
  FM260200 VRB03KT P6SM SCT008 BKN012
  FM260800 VRB03KT 5SM BR BKN005 OVC010
  TEMPO 2608/2612 2SM BR


Raw METAR
KJFK 250851Z 05004KT 9SM OVC006 13/13 A3021 RMK AO2 DZE13 SLP230 P0000 60000 T01330133 58000 $
KJFK 250751Z 02005KT 6SM -DZ BR OVC007 14/14 A3022 RMK AO2 SLP232 P0000 T01390139 $
KJFK 250651Z 03005KT 6SM -DZ BR OVC009 14/13 A3021 RMK AO2 DZB50 SLP228 P0000 T01390133 $

METAR Board
Radar Display
Forecast Discussion
For situational awareness. Not to be used for flight planning purposes.